Tiempo atmosférico en la estación meteorológica de Degaña, Asturias (1305 m.)



Fecha
DESCASC
Temp. máxima en grados centígrados (hora)
DESCASC
Temp. mínima en grados centígrados (hora)
DESCASC
Temp. media en grados centígrados
DESCASC
Racha de viento máxima en m/sg (hora)
DESCASC
Velocidad máxima media en intervalos de 10 minutos(hora)
DESCASC
Precipitaciones diarias en mm
DESCASC
Precipitaciones de 00:00 a 06:00 en mm
DESCASC
Precipitaciones de 06:00 a 12:00 en mm
DESCASC
Precipitaciones de 12:00 a 18:00 en mm
DESCASC
Precipitaciones de 18:00 a 24:00 en mm
DESCASC
30-11-2020 13.1 (14:50) 2.9 (21:30) 8 6.94 (00:10) 4.72 (09:30) 0 0 0 0 0
29-11-2020 7.5 (14:00) 4.5 (00:00) 6 11.39 (05:50) 5 (10:30) 0 0 0 0 0
28-11-2020 8.8 (12:40) 3.5 (00:00) 6.2 10 (21:20) 4.17 (19:20) 0 0 0 0 0
27-11-2020 8.7 (15:40) 3.5 (00:00) 6.1 8.89 (01:00) 5 (12:30) 0 0 0 0 0
26-11-2020 7.8 (14:20) 4.4 (00:00) 6.1 11.39 (17:30) 6.11 (11:00) 1.4 1 0.4 0 0
25-11-2020 6.1 (01:30) 2.1 (00:00) 4.1 10.56 (23:59) 5.83 (10:50) 11.2 5.6 1.2 3 1.4
24-11-2020 10.9 (12:30) 3.1 (00:00) 7 7.5 (21:50) 3.61 (21:50) 0 0 0 0 0
23-11-2020 15.9 (12:10) 3.3 (00:00) 9.6 5.28 (13:00) 3.61 (09:50) 0 0 0 0 0
22-11-2020 13.6 (14:20) 3.2 (00:00) 8.4 4.72 (13:40) 1.67 (12:20) 0 0 0 0 0
21-11-2020 16.8 (14:50) 6.6 (00:00) 11.7 6.39 (03:50) 4.72 (03:50) 0 0 0 0 0
20-11-2020 14.7 (11:50) 0.3 (00:00) 7.5 7.78 (10:50) 5.28 (10:00) 0 0 0 0 0
19-11-2020 14.7 (13:50) 1.6 (00:00) 8.1 5.83 (02:30) 3.33 (02:30) 0 0 0 0 0
18-11-2020 17.5 (13:40) 7.6 (00:00) 12.5 8.89 (01:50) 3.33 (01:50) 0 0 0 0 0
17-11-2020 17.8 (14:10) 4.4 (00:00) 11.1 8.61 (20:40) 4.44 (10:20) 0 0 0 0 0
16-11-2020 13.7 (14:30) 0.8 (00:00) 7.2 3.06 (13:50) 1.67 (13:50) 0 0 0 0 0
15-11-2020 11.7 (13:20) 6.7 (00:00) 9.2 12.5 (03:10) 3.33 (05:20) 11.8 0.6 5 5.8 0.4
14-11-2020 11.9 (16:00) 5.5 (00:00) 8.7 14.17 (15:30) 6.11 (00:10) 0 0 0 0 0
13-11-2020 14.5 (14:00) 4.6 (00:00) 9.5 9.44 (23:59) 6.67 (22:10) 0 0 0 0 0
12-11-2020 14.5 (15:10) 6.3 (00:00) 10.4 6.39 (15:20) 3.33 (13:10) 0.2 0 0.2 0 0
11-11-2020 10.5 (15:10) 3.8 (00:00) 7.1 10.28 (12:20) 5.56 (05:10) 0.2 0 0 0 0.2
10-11-2020 12.7 (14:50) 0 (00:00) 6.3 7.5 (21:00) 5 (21:00) 0.2 0 0.2 0 0
09-11-2020 10.9 (14:50) 3 (00:00) 6.9 8.61 (02:30) 3.33 (02:30) 0.2 0 0 0.2 0
08-11-2020 9.8 (14:30) 7.7 (00:00) 8.8 12.5 (14:20) 3.89 (15:20) 9.2 6 2.2 1 0
07-11-2020 10.8 (14:00) 7.6 (00:00) 9.2 11.67 (00:40) 5 (02:30) 0.8 0 0 0 0.8
06-11-2020 13.4 (14:00) 8 (00:00) 10.7 18.33 (13:40) 7.78 (13:40) 1.4 0.4 0.2 0.2 0.6
05-11-2020 9.7 (10:00) 2.9 (00:00) 6.3 17.78 (09:40) 7.22 (11:20) 4.6 0 0 0 4.6
04-11-2020 5.6 (13:00) -2 (-00:0) 1.8 -- (--) -- (--) 0 0 0 0 0
03-11-2020 5.2 (00:00) 0.3 (00:00) 2.7 7.78 (12:10) 3.61 (11:30) 1.4 0 1 0.4 0
02-11-2020 13 (11:50) 5.2 (00:00) 9.1 5 (07:10) 2.5 (07:20) 7.2 0 0 6.2 1

Gráficas

Temp. máximas Temp. mínimas Temp. medias Precipitaciones Rachas de viento máximas Velocidades máximas media en intervalos de 10 minutos

Datos horarios

Fecha y hora oficial Temperatura (ºC) Velocidad del viento (km/h) Dirección del viento Racha (km/h) Dirección de racha Precipitación (mm) Presión (hPa) Tendencia (hPa) Humedad (%)
2020-12-01 23:00:00 4.4 6 Sudeste 21 Este 0 -- -- 74
2020-12-01 22:00:00 4.7 4 Sur 18 Sudeste 0 -- -- 70
2020-12-01 21:00:00 4.8 6 Sur 18 Sudeste 0 -- -- 68
2020-12-01 20:00:00 3.9 0 Calma 5 Oeste 0 -- -- 70
2020-12-01 19:00:00 4.6 0 Calma 3 Oeste 0 -- -- 67
2020-12-01 18:00:00 5.7 0 Calma 4 Noroeste 0 -- -- 65
2020-12-01 17:00:00 6.8 0 Calma 13 Sudoeste 0 -- -- 60
2020-12-01 16:00:00 8.7 4 Oeste 15 Sudeste 0 -- -- 54
2020-12-01 15:00:00 9.3 3 Sur 18 Nordeste 0 -- -- 53
2020-12-01 14:00:00 10.2 4 Sur 9 Sur 0 -- -- 47
2020-12-01 13:00:00 10.6 4 Sur 9 Sudoeste 0 -- -- 45
2020-12-01 12:00:00 10.5 4 Sur 10 Sur 0 -- -- 41
2020-12-01 11:00:00 10.7 3 Sur 8 Sudeste 0 -- -- 38
2020-12-01 10:00:00 6.2 0 Calma 6 Noroeste 0 -- -- 51
2020-12-01 09:00:00 2 4 Noroeste 8 Noroeste 0 -- -- 64
2020-12-01 08:00:00 1.5 4 Noroeste 7 Noroeste 0 -- -- 68
2020-12-01 07:00:00 1.7 4 Noroeste 9 Noroeste 0 -- -- 67
2020-12-01 06:00:00 1.9 5 Noroeste 7 Noroeste 0 -- -- 70
2020-12-01 05:00:00 4.5 3 Noroeste 20 Nordeste 0 -- -- 64
2020-12-01 04:00:00 8.2 15 Nordeste 24 Este 0 -- -- 50
2020-12-01 03:00:00 6.3 13 Este 21 Este 0 -- -- 57
2020-12-01 02:00:00 3.6 0 Calma 14 Este 0 -- -- 71
2020-12-01 01:00:00 4.4 4 Este 13 Nordeste 0 -- -- 68
2020-12-01 00:00:00 4.4 5 Este 11 Este 0 -- -- 68
2020-11-30 23:00:00 3.1 2 Noroeste 5 Oeste 0 -- -- 76
2020-11-30 22:00:00 3.1 0 Calma 8 Noroeste 0 -- -- 78
2020-11-30 21:00:00 3.6 3 Oeste 8 Noroeste 0 -- -- 75
2020-11-30 20:00:00 4.2 2 Sudoeste 10 Nordeste 0 -- -- 72
2020-11-30 19:00:00 4.2 3 Noroeste 6 Noroeste 0 -- -- 76
2020-11-30 18:00:00 5.8 3 Norte 6 Nordeste 0 -- -- 71
2020-11-30 17:00:00 8.3 0 Calma 4 Sur 0 -- -- 64
2020-11-30 16:00:00 11 3 Sur 13 Sur 0 -- -- 53
2020-11-30 15:00:00 12.9 6 Sur 18 Sudeste 0 -- -- 40
2020-11-30 14:00:00 12.5 4 Sudeste 15 Sudeste 0 -- -- 40
2020-11-30 13:00:00 10.6 9 Este 18 Este 0 -- -- 50
2020-11-30 12:00:00 10.1 9 Este 20 Este 0 -- -- 48
2020-11-30 11:00:00 9.8 15 Este 22 Este 0 -- -- 46
2020-11-30 10:00:00 8.6 9 Este 24 Este 0 -- -- 53
2020-11-30 09:00:00 5.8 9 Este 23 Este 0 -- -- 64
2020-11-30 08:00:00 3.4 3 Norte 19 Este 0 -- -- 74
2020-11-30 07:00:00 5.1 6 Sudeste 18 Sudeste 0 -- -- 70
2020-11-30 06:00:00 4.5 3 Nordeste 14 Nordeste 0 -- -- 74
2020-11-30 05:00:00 4.8 8 Nordeste 19 Este 0 -- -- 73
2020-11-30 04:00:00 4.1 4 Sudeste 16 Nordeste 0 -- -- 79
2020-11-30 03:00:00 3.7 4 Norte 18 Este 0 -- -- 79
2020-11-30 02:00:00 6.1 14 Nordeste 23 Nordeste 0 -- -- 72
2020-11-30 01:00:00 6.4 13 Nordeste 25 Este 0 -- -- 71
2020-11-30 00:00:00 6.1 14 Este 23 Este 0 -- -- 74
2020-11-29 23:00:00 6.2 15 Nordeste 24 Este 0 -- -- 75
2020-11-29 22:00:00 6.2 14 Nordeste 22 Nordeste 0 -- -- 76
2020-11-29 21:00:00 6.3 13 Nordeste 22 Nordeste 0 -- -- 77
2020-11-29 20:00:00 6 9 Nordeste 17 Nordeste 0 -- -- 78
2020-11-29 19:00:00 6.1 9 Nordeste 21 Nordeste 0 -- -- 79
2020-11-29 18:00:00 6.3 9 Nordeste 19 Nordeste 0 -- -- 79
2020-11-29 17:00:00 7 6 Este 23 Nordeste 0 -- -- 75
2020-11-29 16:00:00 7.2 14 Este 28 Este 0 -- -- 73
2020-11-29 15:00:00 7.3 14 Este 31 Este 0 -- -- 74
2020-11-29 14:00:00 7.5 12 Este 27 Este 0 -- -- 74
2020-11-29 13:00:00 7.3 14 Este 28 Este 0 -- -- 77
2020-11-29 12:00:00 7 18 Este 32 Este 0 -- -- 77
2020-11-29 11:00:00 6.6 15 Este 30 Este 0 -- -- 80
2020-11-29 10:00:00 5.2 17 Este 25 Este 0 -- -- 84
2020-11-29 09:00:00 4.5 13 Nordeste 26 Este 0 -- -- 86
2020-11-29 08:00:00 4.9 17 Nordeste 30 Este 0 -- -- 84
2020-11-29 07:00:00 6.4 12 Este 35 Sudeste 0 -- -- 69
2020-11-29 06:00:00 6.5 15 Este 41 Este 0 -- -- 74
2020-11-29 05:00:00 5.7 12 Este 24 Este 0 -- -- 79
2020-11-29 04:00:00 5.3 11 Nordeste 26 Este 0 -- -- 81
2020-11-29 03:00:00 5.2 3 Sur 18 Este 0 -- -- 81
2020-11-29 02:00:00 5.6 6 Este 22 Sudoeste 0 -- -- 78
2020-11-29 01:00:00 5.7 9 Este 27 Este 0 -- -- 75
2020-11-29 00:00:00 6 11 Este 26 Nordeste 0 -- -- 73
2020-11-28 23:00:00 6.2 9 Este 27 Este 0 -- -- 75
2020-11-28 22:00:00 6.2 12 Este 36 Este 0 -- -- 74
2020-11-28 21:00:00 6.1 4 Este 14 Sudeste 0 -- -- 75
2020-11-28 20:00:00 6.3 6 Este 29 Sudeste 0 -- -- 71
2020-11-28 19:00:00 6.3 12 Este 24 Este 0 -- -- 70
2020-11-28 18:00:00 6.2 9 Sur 23 Sudoeste 0 -- -- 72
2020-11-28 17:00:00 7.1 8 Este 21 Este 0 -- -- 70
2020-11-28 16:00:00 7.9 8 Sudeste 20 Sudeste 0 -- -- 69
2020-11-28 15:00:00 7.5 6 Este 20 Sudeste 0 -- -- 71
2020-11-28 14:00:00 7.7 6 Sudeste 29 Sur 0 -- -- 71
2020-11-28 13:00:00 8.5 5 Sur 15 Este 0 -- -- 69
2020-11-28 12:00:00 7.9 7 Este 21 Este 0 -- -- 71
2020-11-28 11:00:00 7.2 11 Este 22 Este 0 -- -- 74
2020-11-28 10:00:00 6 12 Este 23 Nordeste 0 -- -- 80
2020-11-28 09:00:00 4.6 7 Nordeste 17 Nordeste 0 -- -- 86
2020-11-28 08:00:00 4.7 9 Nordeste 19 Nordeste 0 -- -- 87
2020-11-28 07:00:00 4.5 6 Nordeste 21 Nordeste 0 -- -- 88
2020-11-28 06:00:00 4.8 12 Nordeste 22 Este 0 -- -- 89
2020-11-28 05:00:00 4.9 11 Nordeste 21 Este 0 -- -- 88
2020-11-28 04:00:00 5.5 14 Nordeste 22 Este 0 -- -- 86
2020-11-28 03:00:00 6.1 6 Sur 18 Sudoeste 0 -- -- 82
2020-11-28 02:00:00 5.1 5 Sur 22 Sur 0 -- -- 86
2020-11-28 01:00:00 3.5 3 Noroeste 14 Este 0 -- -- 87
2020-11-28 00:00:00 6.8 9 Este 23 Este 0 -- -- 76
2020-11-27 23:00:00 7 8 Este 17 Nordeste 0 -- -- 75
2020-11-27 22:00:00 5.4 5 Este 10 Este 0 -- -- 85
2020-11-27 21:00:00 3.8 4 Este 10 Nordeste 0 -- -- 88
2020-11-27 20:00:00 4.4 5 Este 10 Nordeste 0 -- -- 82
2020-11-27 19:00:00 6.6 6 Este 16 Este 0 -- -- 73
2020-11-27 18:00:00 7 5 Este 24 Este 0 -- -- 74
2020-11-27 17:00:00 7.9 15 Este 27 Este 0 -- -- 74
2020-11-27 16:00:00 8.6 12 Este 22 Este 0 -- -- 70
2020-11-27 15:00:00 8 14 Este 26 Este 0 -- -- 75
2020-11-27 14:00:00 8.2 12 Este 29 Este 0 -- -- 75
2020-11-27 13:00:00 8.1 17 Este 31 Sudeste 0 -- -- 78
2020-11-27 12:00:00 7.5 15 Este 29 Este 0 -- -- 79
2020-11-27 11:00:00 6.7 13 Este 26 Este 0 -- -- 87
2020-11-27 10:00:00 6 13 Este 26 Este 0 -- -- 89
2020-11-27 09:00:00 5.3 11 Nordeste 28 Este 0 -- -- 91
2020-11-27 08:00:00 5.2 15 Nordeste 29 Este 0 -- -- 94
2020-11-27 07:00:00 5.3 16 Nordeste 27 Nordeste 0 -- -- 92
2020-11-27 06:00:00 5.4 12 Nordeste 23 Este 0 -- -- 92
2020-11-27 05:00:00 5.5 14 Este 26 Este 0 -- -- 92
2020-11-27 04:00:00 5.7 15 Este 28 Este 0 -- -- 91
2020-11-27 03:00:00 5.9 11 Este 23 Este 0 -- -- 93
2020-11-27 02:00:00 6.4 7 Este 24 Sudeste 0 -- -- 87
2020-11-27 01:00:00 6.6 11 Sudeste 32 Sudeste 0 -- -- 83
2020-11-27 00:00:00 6.6 10 Este 23 Este 0 -- -- 86
2020-11-26 23:00:00 6.9 11 Este 28 Este 0 -- -- 83
2020-11-26 22:00:00 7.3 11 Este 27 Este 0 -- -- 80
2020-11-26 21:00:00 7 13 Este 29 Este 0 -- -- 79
2020-11-26 20:00:00 6.9 12 Este 28 Este 0 -- -- 79
2020-11-26 19:00:00 6.9 14 Este 30 Este 0 -- -- 78
2020-11-26 18:00:00 7.1 15 Este 41 Este 0 -- -- 78
2020-11-26 17:00:00 7 14 Este 27 Este 0 -- -- 82
2020-11-26 16:00:00 7.1 12 Este 26 Este 0 -- -- 82
2020-11-26 15:00:00 7 12 Este 31 Este 0 -- -- 82
2020-11-26 14:00:00 7.4 14 Sudeste 30 Sudeste 0 -- -- 82
2020-11-26 13:00:00 6.7 10 Sudeste 30 Este 0 -- -- 86
2020-11-26 12:00:00 6.1 11 Este 35 Este 0 -- -- 89
2020-11-26 11:00:00 5.3 22 Este 39 Este 0.2 -- -- 95
2020-11-26 10:00:00 5.4 16 Este 33 Este 0 -- -- 94
2020-11-26 09:00:00 5.6 13 Este 35 Este 0 -- -- 92
2020-11-26 08:00:00 5.3 15 Este 29 Este 0.2 -- -- 94
2020-11-26 07:00:00 4.8 15 Este 32 Este 0 -- -- 97
2020-11-26 06:00:00 4.7 15 Este 26 Este 0.2 -- -- 94
2020-11-26 05:00:00 4.4 16 Este 38 Sudeste 0.2 -- -- 97
2020-11-26 04:00:00 4.5 20 Este 35 Este 0 -- -- 94
2020-11-26 03:00:00 4.4 19 Este 32 Este 0 -- -- 94
2020-11-26 02:00:00 4.7 15 Nordeste 28 Nordeste 0.2 -- -- 93
2020-11-26 01:00:00 5.3 12 Este 33 Este 0.4 -- -- 89
2020-11-26 00:00:00 5.4 11 Este 38 Este 0 -- -- 88
2020-11-25 23:00:00 4.1 13 Este 28 Nordeste 0.2 -- -- 95
2020-11-25 22:00:00 3.5 16 Este 33 Este 0.6 -- -- 95
2020-11-25 21:00:00 3 18 Este 29 Este 0.6 -- -- 94
2020-11-25 20:00:00 2.5 14 Nordeste 26 Nordeste 0 -- -- 95
2020-11-25 19:00:00 2.1 10 Nordeste 28 Nordeste 0 -- -- 96
2020-11-25 18:00:00 2.1 14 Este 25 Este 0.4 -- -- 96
2020-11-25 17:00:00 2.2 13 Este 23 Este 0.8 -- -- 95
2020-11-25 16:00:00 2.3 12 Este 22 Este 0.8 -- -- 95
2020-11-25 15:00:00 2.7 15 Este 26 Este 0.4 -- -- 94
2020-11-25 14:00:00 2.6 17 Nordeste 27 Este 0.4 -- -- 94
2020-11-25 13:00:00 3.3 17 Este 30 Este 0.2 -- -- 95
2020-11-25 12:00:00 3.6 18 Este 31 Este 0.2 -- -- 94
2020-11-25 11:00:00 3.6 20 Este 30 Este 0.2 -- -- 95
2020-11-25 10:00:00 3.6 19 Nordeste 28 Este 0.4 -- -- 95
2020-11-25 09:00:00 3.8 9 Nordeste 17 Este 0 -- -- 93
2020-11-25 08:00:00 3.6 6 Nordeste 11 Nordeste 0 -- -- 94
2020-11-25 07:00:00 3.6 4 Este 12 Nordeste 0.4 -- -- 92
2020-11-25 06:00:00 3.5 7 Norte 14 Este 0.8 -- -- 92
2020-11-25 05:00:00 4.2 5 Noroeste 16 Sudeste 2.2 -- -- 91
2020-11-25 04:00:00 4.7 4 Oeste 18 Oeste 1.8 -- -- 92
2020-11-25 03:00:00 5.3 3 Norte 19 Oeste 0.8 -- -- 88
2020-11-25 02:00:00 6 5 Este 19 Este 0 -- -- 82
2020-11-25 01:00:00 5.8 5 Norte 24 Este 0 -- -- 81
2020-11-25 00:00:00 5.6 13 Nordeste 22 Nordeste 0 -- -- 83
2020-11-24 23:00:00 6.9 10 Noroeste 25 Noroeste 0 -- -- 76
2020-11-24 22:00:00 6.8 10 Noroeste 27 Noroeste 0 -- -- 77
2020-11-24 21:00:00 6.5 6 Oeste 26 Sur 0 -- -- 76
2020-11-24 20:00:00 6.3 6 Sudeste 21 Sudoeste 0 -- -- 77
2020-11-24 19:00:00 6.6 6 Sudeste 20 Sur 0 -- -- 76
2020-11-24 18:00:00 6.6 5 Sur 21 Sur 0 -- -- 75
2020-11-24 17:00:00 7.4 4 Sudoeste 22 Sudeste 0 -- -- 71
2020-11-24 16:00:00 9.2 6 Sur 18 Sudeste 0 -- -- 60
2020-11-24 15:00:00 9.9 6 Sudoeste 16 Sudoeste 0 -- -- 50
2020-11-24 14:00:00 10 3 Nordeste 17 Sudoeste 0 -- -- 45
2020-11-24 13:00:00 10.1 3 Nordeste 16 Sur 0 -- -- 49
2020-11-24 12:00:00 10.4 5 Este 18 Sur 0 -- -- 49
2020-11-24 11:00:00 8.6 4 Sudeste 21 Sudeste 0 -- -- 59
2020-11-24 10:00:00 6.8 3 Sudeste 14 Sudeste 0 -- -- 61
2020-11-24 09:00:00 4.1 3 Nordeste 9 Nordeste 0 -- -- 68
2020-11-24 08:00:00 3.4 2 Norte 8 Nordeste 0 -- -- 67
2020-11-24 07:00:00 3.3 3 Nordeste 6 Nordeste 0 -- -- 65
2020-11-24 06:00:00 3.2 2 Noroeste 6 Nordeste 0 -- -- 63
2020-11-24 05:00:00 3.8 2 Norte 12 Nordeste 0 -- -- 56
2020-11-24 04:00:00 4 4 Nordeste 12 Nordeste 0 -- -- 56
2020-11-24 03:00:00 4.2 2 Noroeste 10 Nordeste 0 -- -- 52
2020-11-24 02:00:00 4.8 3 Norte 8 Nordeste 0 -- -- 56
2020-11-24 01:00:00 5.5 5 Norte 12 Nordeste 0 -- -- 56
2020-11-24 00:00:00 6.9 6 Nordeste 16 Este 0 -- -- 62
2020-11-23 23:00:00 7.6 5 Nordeste 14 Nordeste 0 -- -- 63
2020-11-23 22:00:00 8.6 10 Nordeste 18 Nordeste 0 -- -- 62
2020-11-23 21:00:00 9 10 Nordeste 16 Nordeste 0 -- -- 61
2020-11-23 20:00:00 6.3 4 Norte 9 Nordeste 0 -- -- 78
2020-11-23 19:00:00 6.9 0 Calma 4 Noroeste 0 -- -- 75
2020-11-23 18:00:00 8.4 2 Noroeste 3 Sur 0 -- -- 69
2020-11-23 17:00:00 11.7 0 Calma 6 Noroeste 0 -- -- 57
2020-11-23 16:00:00 12.7 2 Oeste 8 Noroeste 0 -- -- 52
2020-11-23 15:00:00 13.4 2 Oeste 13 Sur 0 -- -- 51
2020-11-23 14:00:00 15.1 8 Sur 17 Este 0 -- -- 45
2020-11-23 13:00:00 15.3 10 Sudeste 19 Sudeste 0 -- -- 39
2020-11-23 12:00:00 15.5 9 Sur 13 Sur 0 -- -- 40
2020-11-23 11:00:00 14 6 Sudeste 18 Este 0 -- -- 46
2020-11-23 10:00:00 11.1 12 Nordeste 19 Este 0 -- -- 48
2020-11-23 09:00:00 4 2 Oeste 7 Noroeste 0 -- -- 79
2020-11-23 08:00:00 3.7 3 Noroeste 7 Noroeste 0 -- -- 82
2020-11-23 07:00:00 3.9 4 Noroeste 7 Noroeste 0 -- -- 82
2020-11-23 06:00:00 4.2 4 Noroeste 6 Noroeste 0 -- -- 82
2020-11-23 05:00:00 3.9 4 Oeste 7 Noroeste 0 -- -- 82
2020-11-23 04:00:00 3.6 3 Noroeste 6 Noroeste 0 -- -- 82
2020-11-23 03:00:00 3.8 0 Calma 5 Noroeste 0 -- -- 81
2020-11-23 02:00:00 3.7 3 Oeste 12 Norte 0 -- -- 81
2020-11-23 01:00:00 4.5 3 Noroeste 11 Nordeste 0 -- -- 75
2020-11-23 00:00:00 3.4 3 Noroeste 9 Noroeste 0 -- -- 82
2020-11-22 23:00:00 3.5 3 Noroeste 6 Oeste 0 -- -- 86
2020-11-22 22:00:00 3.7 3 Noroeste 6 Noroeste 0 -- -- 85
2020-11-22 21:00:00 4 4 Noroeste 6 Noroeste 0 -- -- 83
2020-11-22 20:00:00 4.6 3 Noroeste 5 Noroeste 0 -- -- 80
2020-11-22 19:00:00 5.3 4 Noroeste 5 Noroeste 0 -- -- 75
2020-11-22 18:00:00 8 2 Noroeste 7 Oeste 0 -- -- 64
2020-11-22 17:00:00 10.8 2 Norte 9 Noroeste 0 -- -- 53
2020-11-22 16:00:00 12.5 4 Noroeste 12 Sudoeste 0 -- -- 46
2020-11-22 15:00:00 13.2 5 Oeste 15 Sur 0 -- -- 40
2020-11-22 14:00:00 13.1 3 Noroeste 17 Sudoeste 0 -- -- 39
2020-11-22 13:00:00 12.8 3 Oeste 13 Sur 0 -- -- 46
2020-11-22 12:00:00 12.1 3 Sur 14 Sur 0 -- -- 49
2020-11-22 11:00:00 10.9 3 Sudoeste 9 Sur 0 -- -- 50
2020-11-22 10:00:00 9.1 2 Oeste 7 Noroeste 0 -- -- 53
2020-11-22 09:00:00 4 5 Noroeste 7 Noroeste 0 -- -- 72
2020-11-22 08:00:00 4.1 4 Noroeste 6 Oeste 0 -- -- 70
2020-11-22 07:00:00 4.4 3 Oeste 6 Noroeste 0 -- -- 70
2020-11-22 06:00:00 4.5 4 Noroeste 6 Noroeste 0 -- -- 61
2020-11-22 05:00:00 4.4 3 Noroeste 7 Noroeste 0 -- -- 61
2020-11-22 04:00:00 4.7 4 Noroeste 6 Noroeste 0 -- -- 60
2020-11-22 03:00:00 4.6 3 Noroeste 5 Oeste 0 -- -- 64
2020-11-22 02:00:00 4.9 4 Noroeste 7 Noroeste 0 -- -- 63
2020-11-22 01:00:00 5.9 3 Noroeste 9 Noroeste 0 -- -- 55
2020-11-22 00:00:00 6.6 3 Noroeste 20 Nordeste 0 -- -- 58
2020-11-21 23:00:00 10.8 11 Nordeste 22 Nordeste 0 -- -- 41
2020-11-21 22:00:00 9.7 10 Nordeste 18 Nordeste 0 -- -- 48
2020-11-21 21:00:00 7.4 3 Norte 6 Noroeste 0 -- -- 65
2020-11-21 20:00:00 9.3 3 Noroeste 16 Nordeste 0 -- -- 58
2020-11-21 19:00:00 9.6 6 Nordeste 13 Nordeste 0 -- -- 55
2020-11-21 18:00:00 10.2 2 Norte 6 Sudoeste 0 -- -- 58
2020-11-21 17:00:00 13.4 3 Sur 10 Sudeste 0 -- -- 51
2020-11-21 16:00:00 15.5 4 Sur 17 Sudeste 0 -- -- 45
2020-11-21 15:00:00 16.7 8 Sudeste 14 Sur 0 -- -- 42
2020-11-21 14:00:00 16.2 6 Sur 17 Sur 0 -- -- 45
2020-11-21 13:00:00 15.6 6 Sudeste 17 Este 0 -- -- 46
2020-11-21 12:00:00 14.6 10 Este 20 Este 0 -- -- 48
2020-11-21 11:00:00 14.9 9 Este 17 Este 0 -- -- 47
2020-11-21 10:00:00 12.4 4 Sudeste 8 Este 0 -- -- 53
2020-11-21 09:00:00 6.6 2 Oeste 13 Nordeste 0 -- -- 73
2020-11-21 08:00:00 10.8 9 Nordeste 18 Este 0 -- -- 55
2020-11-21 07:00:00 9.7 9 Nordeste 15 Sudeste 0 -- -- 58
2020-11-21 06:00:00 8.4 0 Calma 19 Nordeste 0 -- -- 64
2020-11-21 05:00:00 11.7 14 Nordeste 22 Nordeste 0 -- -- 50
2020-11-21 04:00:00 12 13 Nordeste 23 Nordeste 0 -- -- 48
2020-11-21 03:00:00 10.7 10 Nordeste 16 Nordeste 0 -- -- 49
2020-11-21 02:00:00 11.5 12 Nordeste 19 Nordeste 0 -- -- 45
2020-11-21 01:00:00 8.4 6 Nordeste 16 Nordeste 0 -- -- 56
2020-11-21 00:00:00 9.5 8 Nordeste 19 Nordeste 0 -- -- 53
2020-11-20 23:00:00 11.2 12 Nordeste 24 Nordeste 0 -- -- 46
2020-11-20 22:00:00 10.8 14 Nordeste 25 Nordeste 0 -- -- 48
2020-11-20 21:00:00 10.4 12 Nordeste 19 Este 0 -- -- 49
2020-11-20 20:00:00 8.6 4 Sudeste 17 Este 0 -- -- 59
2020-11-20 19:00:00 11.1 12 Este 18 Este 0 -- -- 47
2020-11-20 18:00:00 8.3 5 Nordeste 13 Nordeste 0 -- -- 64
2020-11-20 17:00:00 9.9 0 Calma 6 Sudoeste 0 -- -- 63
2020-11-20 16:00:00 12.4 2 Oeste 9 Sur 0 -- -- 51
2020-11-20 15:00:00 13.9 3 Sur 11 Sur 0 -- -- 42
2020-11-20 14:00:00 13.6 4 Sur 14 Sur 0 -- -- 39
2020-11-20 13:00:00 13.7 5 Sur 10 Sur 0 -- -- 38
2020-11-20 12:00:00 13.7 7 Sur 21 Este 0 -- -- 32
2020-11-20 11:00:00 13.5 16 Nordeste 28 Nordeste 0 -- -- 29
2020-11-20 10:00:00 10.8 19 Este 27 Este 0 -- -- 28
2020-11-20 09:00:00 2.7 0 Calma 4 Oeste 0 -- -- 60
2020-11-20 08:00:00 2.7 0 Calma 6 Noroeste 0 -- -- 61
2020-11-20 07:00:00 2.3 2 Oeste 7 Sudeste 0 -- -- 63
2020-11-20 06:00:00 3.7 3 Sudeste 8 Este 0 -- -- 46
2020-11-20 05:00:00 2.8 3 Oeste 8 Noroeste 0 -- -- 56
2020-11-20 04:00:00 3.5 2 Oeste 17 Nordeste 0 -- -- 54
2020-11-20 03:00:00 2.4 3 Oeste 7 Noroeste 0 -- -- 62
2020-11-20 02:00:00 0.4 4 Oeste 7 Noroeste 0 -- -- 83
2020-11-20 01:00:00 1.1 0 Calma 4 Sur 0 -- -- 86
2020-11-20 00:00:00 1.9 2 Oeste 6 Noroeste 0 -- -- 75
2020-11-19 23:00:00 2.9 0 Calma 12 Oeste 0 -- -- 94
2020-11-19 22:00:00 3.3 0 Calma 9 Nordeste 0 -- -- 69
2020-11-19 21:00:00 3.3 2 Oeste 8 Sudoeste 0 -- -- 89
2020-11-19 20:00:00 6.1 0 Calma 5 Nordeste 0 -- -- 97
2020-11-19 19:00:00 6.8 2 Sur 6 Noroeste 0 -- -- 98
2020-11-19 18:00:00 7.7 2 Oeste 6 Sur 0 -- -- 96
2020-11-19 17:00:00 8.6 3 Norte 13 Sur 0 -- -- 94
2020-11-19 16:00:00 11.6 3 Noroeste 16 Noroeste 0 -- -- 83
2020-11-19 15:00:00 14.6 4 Nordeste 14 Sudoeste 0 -- -- 69
2020-11-19 14:00:00 14.4 4 Sudoeste 15 Sur 0 -- -- 68
2020-11-19 13:00:00 13.5 5 Sur 11 Sudeste 0 -- -- 75
2020-11-19 12:00:00 13.2 5 Sur 11 Sur 0 -- -- 76
2020-11-19 11:00:00 12.1 4 Sur 14 Este 0 -- -- 81
2020-11-19 10:00:00 8.8 3 Sudeste 6 Sur 0 -- -- 99
2020-11-19 09:00:00 7.8 0 Calma 6 Sur 0 -- -- 99
2020-11-19 08:00:00 7.4 2 Norte 20 Norte 0 -- -- 99
2020-11-19 07:00:00 6.3 8 Noroeste 15 Norte 0 -- -- 100
2020-11-19 06:00:00 6.4 0 Calma 6 Sur 0 -- -- 96
2020-11-19 05:00:00 7.7 0 Calma 3 Noroeste 0 -- -- 96
2020-11-19 04:00:00 7.8 0 Calma 6 Sudoeste 0 -- -- 95
2020-11-19 03:00:00 8.2 0 Calma 21 Norte 0 -- -- 90
2020-11-19 02:00:00 6.8 5 Noroeste 8 Noroeste 0 -- -- 93
2020-11-19 01:00:00 7 4 Noroeste 7 Noroeste 0 -- -- 95
2020-11-19 00:00:00 7.9 3 Noroeste 5 Noroeste 0 -- -- 92
2020-11-18 23:00:00 9.3 0 Calma 5 Oeste 0 -- -- 89
2020-11-18 22:00:00 10.3 3 Noroeste 9 Noroeste 0 -- -- 82
2020-11-18 21:00:00 10.8 2 Noroeste 8 Noroeste 0 -- -- 71
2020-11-18 20:00:00 11.3 2 Oeste 5 Noroeste 0 -- -- 68
2020-11-18 19:00:00 11.5 3 Noroeste 5 Oeste 0 -- -- 66
2020-11-18 18:00:00 12.9 3 Noroeste 12 Sur 0 -- -- 60
2020-11-18 17:00:00 14.8 5 Sur 15 Noroeste 0 -- -- 51
2020-11-18 16:00:00 15.8 6 Noroeste 17 Oeste 0 -- -- 46
2020-11-18 15:00:00 16.7 9 Noroeste 23 Noroeste 0 -- -- 47
2020-11-18 14:00:00 17.3 9 Noroeste 22 Oeste 0 -- -- 46
2020-11-18 13:00:00 16.9 7 Sur 18 Este 0 -- -- 49
2020-11-18 12:00:00 15.7 9 Sudeste 17 Sur 0 -- -- 59
2020-11-18 11:00:00 14.1 6 Este 9 Este 0 -- -- 67
2020-11-18 10:00:00 11.6 3 Sudoeste 8 Sudeste 0 -- -- 78
2020-11-18 09:00:00 7.6 0 Calma 6 Noroeste 0 -- -- 91
2020-11-18 08:00:00 9.3 3 Noroeste 14 Sudoeste 0 -- -- 82
2020-11-18 07:00:00 11 9 Noroeste 24 Oeste 0 -- -- 79
2020-11-18 06:00:00 11.6 11 Noroeste 23 Noroeste 0 -- -- 77
2020-11-18 05:00:00 11.7 5 Noroeste 24 Sudoeste 0 -- -- 78
2020-11-18 04:00:00 12.1 4 Noroeste 28 Sudoeste 0 -- -- 78
2020-11-18 03:00:00 12.2 7 Sudeste 24 Este 0 -- -- 74
2020-11-18 02:00:00 12.1 2 Noroeste 32 Sudeste 0 -- -- 69
2020-11-18 01:00:00 11.9 5 Sudoeste 22 Sur 0 -- -- 65
2020-11-18 00:00:00 10.9 6 Noroeste 27 Oeste 0 -- -- 66
2020-11-17 23:00:00 11.2 8 Noroeste 24 Noroeste 0 -- -- 64
2020-11-17 22:00:00 10.7 4 Noroeste 18 Noroeste 0 -- -- 67
2020-11-17 21:00:00 12.2 6 Noroeste 31 Noroeste 0 -- -- 61
2020-11-17 20:00:00 12.5 3 Noroeste 14 Noroeste 0 -- -- 58
2020-11-17 19:00:00 12.9 7 Noroeste 21 Oeste 0 -- -- 57
2020-11-17 18:00:00 12.6 3 Noroeste 15 Sudeste 0 -- -- 58
2020-11-17 17:00:00 15.1 3 Nordeste 15 Noroeste 0 -- -- 49
2020-11-17 16:00:00 16.3 3 Noroeste 17 Oeste 0 -- -- 46
2020-11-17 15:00:00 17.8 3 Sur 14 Oeste 0 -- -- 41
2020-11-17 14:00:00 17.7 4 Sudeste 15 Sudeste 0 -- -- 41
2020-11-17 13:00:00 16.7 7 Sudeste 17 Sudeste 0 -- -- 38
2020-11-17 12:00:00 16.1 4 Sudeste 16 Este 0 -- -- 49
2020-11-17 11:00:00 14.1 11 Este 21 Este 0 -- -- 48
2020-11-17 10:00:00 12.6 15 Este 20 Nordeste 0 -- -- 47
2020-11-17 09:00:00 5.6 6 Nordeste 13 Nordeste 0 -- -- 75
2020-11-17 08:00:00 4.6 4 Noroeste 9 Norte 0 -- -- 79
2020-11-17 07:00:00 4.8 2 Noroeste 6 Noroeste 0 -- -- 77
2020-11-17 06:00:00 4.6 2 Noroeste 7 Norte 0 -- -- 77
2020-11-17 05:00:00 4.9 0 Calma 7 Noroeste 0 -- -- 79
2020-11-17 04:00:00 4.8 3 Noroeste 8 Norte 0 -- -- 78
2020-11-17 03:00:00 4.5 3 Noroeste 6 Noroeste 0 -- -- 81
2020-11-17 02:00:00 4.7 3 Oeste 6 Noroeste 0 -- -- 84
2020-11-17 01:00:00 4.9 3 Noroeste 7 Noroeste 0 -- -- 85
2020-11-17 00:00:00 4.9 5 Noroeste 8 Noroeste 0 -- -- 86
2020-11-16 23:00:00 5.4 4 Noroeste 6 Noroeste 0 -- -- 85
2020-11-16 22:00:00 5.4 3 Noroeste 7 Noroeste 0 -- -- 85
2020-11-16 21:00:00 5.5 5 Noroeste 6 Noroeste 0 -- -- 86
2020-11-16 20:00:00 5.5 4 Noroeste 6 Noroeste 0 -- -- 86
2020-11-16 19:00:00 6.2 3 Oeste 6 Oeste 0 -- -- 84
2020-11-16 18:00:00 7.9 0 Calma 5 Sur 0 -- -- 80
2020-11-16 17:00:00 10.7 0 Calma 8 Sudeste 0 -- -- 63
2020-11-16 16:00:00 12.3 2 Noroeste 10 Oeste 0 -- -- 54
2020-11-16 15:00:00 13.4 3 Sudoeste 9 Sudeste 0 -- -- 47
2020-11-16 14:00:00 13.3 4 Sur 11 Sur 0 -- -- 34
2020-11-16 13:00:00 12.6 5 Sudeste 9 Sur 0 -- -- 35
2020-11-16 12:00:00 11 4 Sudeste 6 Sudeste 0 -- -- 38
2020-11-16 11:00:00 8.2 2 Sudeste 4 Sur 0 -- -- 81
2020-11-16 10:00:00 4.8 2 Sudoeste 7 Noroeste 0 -- -- 86
2020-11-16 09:00:00 1.1 4 Noroeste 9 Noroeste 0 -- -- 100
2020-11-16 08:00:00 1.4 5 Noroeste 8 Noroeste 0 -- -- 98
2020-11-16 07:00:00 3.6 0 Calma 5 Norte 0 -- -- 100
2020-11-16 06:00:00 2.9 2 Norte 5 Oeste 0 -- -- 100
2020-11-16 05:00:00 4.5 0 Calma 3 Norte 0 -- -- 99
2020-11-16 04:00:00 5.5 0 Calma 5 Sudeste 0 -- -- 100
2020-11-16 03:00:00 5.6 0 Calma 5 Noroeste 0 -- -- 100
2020-11-16 02:00:00 5.8 2 Noroeste 6 Noroeste 0 -- -- 100
2020-11-16 01:00:00 6 0 Calma 9 Noroeste 0 -- -- 100
2020-11-16 00:00:00 6.7 0 Calma 6 Noroeste 0 -- -- 100
2020-11-15 23:00:00 7.2 3 Nordeste 7 Nordeste 0 -- -- 100
2020-11-15 22:00:00 7.2 2 Noroeste 6 Noroeste 0 -- -- 100
2020-11-15 21:00:00 7.3 3 Noroeste 7 Oeste 0 -- -- 100
2020-11-15 20:00:00 7.5 4 Noroeste 9 Oeste 0.2 -- -- 99
2020-11-15 19:00:00 7.8 0 Calma 8 Noroeste 0.2 -- -- 100
2020-11-15 18:00:00 8.4 4 Norte 17 Noroeste 1 -- -- 99
2020-11-15 17:00:00 9.3 3 Noroeste 10 Noroeste 0.2 -- -- 99
2020-11-15 16:00:00 10.1 4 Norte 16 Noroeste 3.4 -- -- 98
2020-11-15 15:00:00 10.7 10 Noroeste 24 Noroeste 1 -- -- 93
2020-11-15 14:00:00 11.3 9 Noroeste 26 Noroeste 0 -- -- 86
2020-11-15 13:00:00 11.3 6 Noroeste 24 Oeste 0.2 -- -- 91
2020-11-15 12:00:00 11 8 Noroeste 24 Noroeste 0 -- -- 93
2020-11-15 11:00:00 10.5 10 Noroeste 23 Oeste 1.2 -- -- 95
2020-11-15 10:00:00 10.3 4 Noroeste 24 Sur 2.2 -- -- 96
2020-11-15 09:00:00 10.5 9 Nordeste 21 Nordeste 0.4 -- -- 93
2020-11-15 08:00:00 10.2 7 Nordeste 22 Nordeste 0.8 -- -- 95
2020-11-15 07:00:00 10.2 7 Norte 23 Este 0.4 -- -- 94
2020-11-15 06:00:00 10.4 10 Nordeste 45 Sur 0.4 -- -- 91
2020-11-15 05:00:00 10.2 9 Este 27 Sudeste 0.2 -- -- 93
2020-11-15 04:00:00 10.6 8 Nordeste 45 Sur 0 -- -- 89
2020-11-15 03:00:00 10.5 9 Nordeste 30 Sudeste 0 -- -- 86
2020-11-15 02:00:00 9.9 9 Nordeste 26 Sur 0 -- -- 92
2020-11-15 01:00:00 9.8 9 Nordeste 28 Sudeste 0 -- -- 94
2020-11-15 00:00:00 9.6 3 Norte 13 Sudeste 0 -- -- 91
2020-11-14 23:00:00 9.7 4 Este 14 Sudeste 0 -- -- 89
2020-11-14 22:00:00 9.9 5 Sudeste 29 Noroeste 0 -- -- 86
2020-11-14 21:00:00 10 5 Norte 25 Sur 0 -- -- 83
2020-11-14 20:00:00 10.3 5 Nordeste 17 Norte 0 -- -- 80
2020-11-14 19:00:00 10.4 8 Noroeste 22 Noroeste 0 -- -- 80
2020-11-14 18:00:00 10 4 Sudoeste 26 Sudoeste 0 -- -- 82
2020-11-14 17:00:00 10.8 7 Nordeste 34 Sur 0 -- -- 78
2020-11-14 16:00:00 11.9 9 Este 51 Sudoeste 0 -- -- 74
2020-11-14 15:00:00 10.2 8 Noroeste 42 Oeste 0 -- -- 76
2020-11-14 14:00:00 10.7 14 Noroeste 36 Noroeste 0 -- -- 69
2020-11-14 13:00:00 11.4 8 Noroeste 36 Noroeste 0 -- -- 68
2020-11-14 12:00:00 10.1 10 Noroeste 35 Sur 0 -- -- 70
2020-11-14 11:00:00 10.1 10 Noroeste 38 Noroeste 0 -- -- 68
2020-11-14 10:00:00 8.9 10 Oeste 34 Sur 0 -- -- 72
2020-11-14 09:00:00 6.9 11 Nordeste 28 Nordeste 0 -- -- 78
2020-11-14 08:00:00 6.2 18 Este 30 Nordeste 0 -- -- 78
2020-11-14 07:00:00 6.5 16 Nordeste 29 Este 0 -- -- 75
2020-11-14 06:00:00 6.9 10 Este 27 Nordeste 0 -- -- 71
2020-11-14 05:00:00 6.5 12 Nordeste 29 Este 0 -- -- 79
2020-11-14 04:00:00 7.3 9 Nordeste 23 Nordeste 0 -- -- 72
2020-11-14 03:00:00 7.2 11 Este 26 Este 0 -- -- 76
2020-11-14 02:00:00 6.6 15 Este 30 Este 0 -- -- 80
2020-11-14 01:00:00 5.8 22 Nordeste 31 Este 0 -- -- 84
2020-11-14 00:00:00 5.6 23 Nordeste 34 Este 0 -- -- 85
2020-11-13 23:00:00 6 23 Nordeste 33 Este 0 -- -- 84
2020-11-13 22:00:00 6.6 20 Nordeste 30 Este 0 -- -- 85
2020-11-13 21:00:00 7.2 17 Nordeste 24 Nordeste 0 -- -- 84
2020-11-13 20:00:00 5.9 4 Sudeste 12 Este 0 -- -- 87
2020-11-13 19:00:00 6.3 2 Norte 5 Norte 0 -- -- 83
2020-11-13 18:00:00 9 0 Calma 13 Sur 0 -- -- 71
2020-11-13 17:00:00 11.5 4 Sudeste 14 Sudeste 0 -- -- 53
2020-11-13 16:00:00 13.2 8 Sudeste 18 Sur 0 -- -- 45
2020-11-13 15:00:00 14.4 9 Sudeste 20 Sudeste 0 -- -- 41
2020-11-13 14:00:00 14.5 7 Sur 20 Sudeste 0 -- -- 43
2020-11-13 13:00:00 13.8 10 Sudeste 16 Sudeste 0 -- -- 53
2020-11-13 12:00:00 11.5 6 Este 19 Este 0 -- -- 62
2020-11-13 11:00:00 9.5 13 Este 25 Este 0 -- -- 73
2020-11-13 10:00:00 8 9 Este 19 Este 0 -- -- 77
2020-11-13 09:00:00 6.8 10 Nordeste 18 Este 0 -- -- 81
2020-11-13 08:00:00 4.6 2 Nordeste 11 Sur 0 -- -- 87
2020-11-13 07:00:00 4.9 3 Noroeste 6 Norte 0 -- -- 86
2020-11-13 06:00:00 5.9 0 Calma 8 Noroeste 0 -- -- 81
2020-11-13 05:00:00 5.5 0 Calma 6 Noroeste 0 -- -- 77
2020-11-13 04:00:00 6.1 0 Calma 8 Nordeste 0 -- -- 74
2020-11-13 03:00:00 6.5 4 Nordeste 9 Nordeste 0 -- -- 77
2020-11-13 02:00:00 6.1 0 Calma 7 Noroeste 0 -- -- 74
2020-11-13 01:00:00 6.5 0 Calma 9 Noroeste 0 -- -- 75
2020-11-13 00:00:00 6.7 4 Noroeste 8 Nordeste 0 -- -- 77
2020-11-12 23:00:00 7.3 3 Este 13 Sur 0 -- -- 73
2020-11-12 22:00:00 7.2 3 Noroeste 8 Noroeste 0 -- -- 71
2020-11-12 21:00:00 6.6 2 Noroeste 5 Nordeste 0 -- -- 76
2020-11-12 20:00:00 6.4 0 Calma 4 Norte 0 -- -- 78
2020-11-12 19:00:00 6.8 2 Norte 4 Nordeste 0 -- -- 83
2020-11-12 18:00:00 9.7 3 Noroeste 6 Norte 0 -- -- 79
2020-11-12 17:00:00 12.4 3 Sudeste 11 Este 0 -- -- 72
2020-11-12 16:00:00 13.6 3 Norte 23 Oeste 0 -- -- 58
2020-11-12 15:00:00 14.3 5 Oeste 17 Sudeste 0 -- -- 60
2020-11-12 14:00:00 14 4 Este 18 Sudeste 0 -- -- 66
2020-11-12 13:00:00 13.9 9 Sudeste 20 Este 0 -- -- 64
2020-11-12 12:00:00 12.9 10 Sudeste 17 Sudeste 0 -- -- 68
2020-11-12 11:00:00 12.1 6 Sudeste 11 Sudeste 0 -- -- 74
2020-11-12 10:00:00 9.5 3 Este 10 Este 0.2 -- -- 84
2020-11-12 09:00:00 7.9 6 Nordeste 13 Este 0 -- -- 88
2020-11-12 08:00:00 7.6 4 Nordeste 15 Nordeste 0 -- -- 89
2020-11-12 07:00:00 7.2 7 Nordeste 14 Nordeste 0 -- -- 93
2020-11-12 06:00:00 6.7 6 Nordeste 19 Este 0 -- -- 94
2020-11-12 05:00:00 6.5 10 Nordeste 17 Nordeste 0 -- -- 94
2020-11-12 04:00:00 6.9 5 Nordeste 12 Nordeste 0 -- -- 92
2020-11-12 03:00:00 7 5 Nordeste 14 Nordeste 0 -- -- 89
2020-11-12 02:00:00 6.9 2 Norte 12 Sudeste 0 -- -- 89
2020-11-12 01:00:00 6.8 3 Noroeste 10 Noroeste 0 -- -- 89
2020-11-12 00:00:00 6.8 0 Calma 6 Norte 0 -- -- 91
2020-11-11 23:00:00 6.5 2 Noroeste 5 Noroeste 0.2 -- -- 92
2020-11-11 22:00:00 7.1 2 Nordeste 9 Sudeste 0 -- -- 84
2020-11-11 21:00:00 7.3 3 Norte 8 Nordeste 0 -- -- 79
2020-11-11 20:00:00 7 3 Noroeste 9 Sur 0 -- -- 81
2020-11-11 19:00:00 6.9 4 Norte 9 Norte 0 -- -- 83
2020-11-11 18:00:00 8 2 Norte 9 Noroeste 0 -- -- 76
2020-11-11 17:00:00 8.9 6 Nordeste 25 Oeste 0 -- -- 63
2020-11-11 16:00:00 10.1 6 Este 25 Sudeste 0 -- -- 57
2020-11-11 15:00:00 10.4 5 Sudeste 21 Sudeste 0 -- -- 60
2020-11-11 14:00:00 9.8 5 Sur 20 Sur 0 -- -- 65
2020-11-11 13:00:00 9.4 8 Sudeste 37 Sur 0 -- -- 64
2020-11-11 12:00:00 9.4 11 Noroeste 28 Norte 0 -- -- 58
2020-11-11 11:00:00 9.2 5 Norte 23 Sur 0 -- -- 58
2020-11-11 10:00:00 8.7 4 Este 20 Sudeste 0 -- -- 62
2020-11-11 09:00:00 5.8 6 Noroeste 30 Este 0 -- -- 72
2020-11-11 08:00:00 4.7 12 Nordeste 27 Nordeste 0 -- -- 79
2020-11-11 07:00:00 3.9 4 Noroeste 28 Este 0 -- -- 81
2020-11-11 06:00:00 4.2 7 Nordeste 31 Nordeste 0 -- -- 81
2020-11-11 05:00:00 5.1 13 Este 29 Este 0 -- -- 75
2020-11-11 04:00:00 5.5 11 Este 22 Este 0 -- -- 73
2020-11-11 03:00:00 5.9 10 Nordeste 21 Este 0 -- -- 73
2020-11-11 02:00:00 6.6 6 Este 18 Nordeste 0 -- -- 71
2020-11-11 01:00:00 6.2 10 Este 21 Este 0 -- -- 77
2020-11-11 00:00:00 5.4 3 Sudeste 23 Este 0 -- -- 82
2020-11-10 23:00:00 5.7 9 Este 22 Nordeste 0 -- -- 83
2020-11-10 22:00:00 5.5 10 Nordeste 27 Este 0 -- -- 84
2020-11-10 21:00:00 5.9 18 Nordeste 27 Este 0 -- -- 83
2020-11-10 20:00:00 6.6 12 Nordeste 18 Nordeste 0 -- -- 81
2020-11-10 19:00:00 5.9 2 Oeste 13 Sudeste 0 -- -- 82
2020-11-10 18:00:00 7.2 0 Calma 4 Sur 0 -- -- 69
2020-11-10 17:00:00 10.1 2 Sudeste 15 Sudeste 0 -- -- 54
2020-11-10 16:00:00 11.7 8 Sudeste 17 Sudeste 0 -- -- 48
2020-11-10 15:00:00 12.7 7 Sudeste 16 Sudeste 0 -- -- 45
2020-11-10 14:00:00 12.2 7 Sudeste 20 Sudeste 0 -- -- 47
2020-11-10 13:00:00 12.1 8 Sudeste 14 Sudeste 0 -- -- 47
2020-11-10 12:00:00 11.1 4 Sudeste 12 Sudeste 0 -- -- 56
2020-11-10 11:00:00 9.7 2 Sudeste 8 Sudeste 0 -- -- 59
2020-11-10 10:00:00 6 0 Calma 5 Sur 0 -- -- 89
2020-11-10 09:00:00 1.1 0 Calma 5 Noroeste 0 -- -- 99
2020-11-10 08:00:00 0.1 0 Calma 5 Oeste 0 -- -- 98
2020-11-10 07:00:00 0.2 3 Noroeste 8 Noroeste 0.2 -- -- 99
2020-11-10 06:00:00 0.3 3 Noroeste 8 Noroeste 0 -- -- 98
2020-11-10 05:00:00 1.2 3 Norte 7 Noroeste 0 -- -- 100
2020-11-10 04:00:00 1.4 4 Noroeste 10 Norte 0 -- -- 99
2020-11-10 03:00:00 1.7 3 Noroeste 7 Noroeste 0 -- -- 99
2020-11-10 02:00:00 2.4 4 Noroeste 6 Noroeste 0 -- -- 100
2020-11-10 01:00:00 2.6 4 Noroeste 6 Noroeste 0 -- -- 99
2020-11-10 00:00:00 3 4 Noroeste 6 Noroeste 0 -- -- 98
2020-11-09 23:00:00 4.9 0 Calma 4 Noroeste 0 -- -- 96
2020-11-09 22:00:00 6.4 0 Calma 6 Noroeste 0 -- -- 97
2020-11-09 21:00:00 6.7 0 Calma 5 Sudeste 0 -- -- 97
2020-11-09 20:00:00 7.1 0 Calma 4 Este 0 -- -- 97
2020-11-09 19:00:00 7.4 0 Calma 4 Oeste 0 -- -- 96
2020-11-09 18:00:00 7.9 0 Calma 4 Noroeste 0 -- -- 92
2020-11-09 17:00:00 8.5 0 Calma 6 Sudoeste 0 -- -- 91
2020-11-09 16:00:00 9.4 3 Oeste 11 Oeste 0 -- -- 86
2020-11-09 15:00:00 10.7 3 Noroeste 13 Sur 0.2 -- -- 75
2020-11-09 14:00:00 8.8 4 Noroeste 12 Noroeste 0 -- -- 89
2020-11-09 13:00:00 7.5 3 Noroeste 13 Noroeste 0 -- -- 94
2020-11-09 12:00:00 7.7 2 Norte 10 Sur 0 -- -- 93
2020-11-09 11:00:00 7.8 3 Sudeste 12 Sur 0 -- -- 93
2020-11-09 10:00:00 7.1 0 Calma 8 Noroeste 0 -- -- 95
2020-11-09 09:00:00 6.6 3 Oeste 12 Sudeste 0 -- -- 95
2020-11-09 08:00:00 6.4 0 Calma 8 Noroeste 0 -- -- 95
2020-11-09 07:00:00 6.5 0 Calma 17 Sur 0 -- -- 95
2020-11-09 06:00:00 6.8 5 Sur 24 Sur 0 -- -- 92
2020-11-09 05:00:00 6.9 4 Nordeste 13 Norte 0 -- -- 92
2020-11-09 04:00:00 7.3 2 Norte 12 Este 0 -- -- 87
2020-11-09 03:00:00 7.3 4 Este 31 Noroeste 0 -- -- 88
2020-11-09 02:00:00 7.5 4 Nordeste 17 Sudoeste 0 -- -- 88
2020-11-09 01:00:00 7.5 5 Este 29 Nordeste 0 -- -- 87
2020-11-09 00:00:00 7.8 7 Este 23 Sur 0 -- -- 86
2020-11-08 23:00:00 7.7 4 Nordeste 26 Sudeste 0 -- -- 87
2020-11-08 22:00:00 8.2 4 Este 27 Sur 0 -- -- 84
2020-11-08 21:00:00 8.5 9 Sudeste 26 Sudeste 0 -- -- 82
2020-11-08 20:00:00 8.7 6 Noroeste 22 Norte 0 -- -- 83
2020-11-08 19:00:00 8.7 5 Nordeste 28 Norte 0 -- -- 82
2020-11-08 18:00:00 9 7 Norte 36 Este 0 -- -- 78
2020-11-08 17:00:00 9 11 Sudeste 38 Sur 0 -- -- 80
2020-11-08 16:00:00 8.6 6 Sudeste 36 Sur 0.6 -- -- 88
2020-11-08 15:00:00 9.7 13 Sudeste 45 Sur 0.2 -- -- 77
2020-11-08 14:00:00 9.2 10 Noroeste 42 Noroeste 0 -- -- 80
2020-11-08 13:00:00 8.7 6 Sur 34 Noroeste 0.2 -- -- 83
2020-11-08 12:00:00 9 9 Noroeste 35 Oeste 0.2 -- -- 83
2020-11-08 11:00:00 8.7 8 Noroeste 37 Noroeste 0.2 -- -- 86
2020-11-08 10:00:00 8.3 8 Noroeste 30 Oeste 1.2 -- -- 89
2020-11-08 09:00:00 8 5 Oeste 43 Oeste 0.4 -- -- 89
2020-11-08 08:00:00 8.4 12 Noroeste 37 Noroeste 0 -- -- 84
2020-11-08 07:00:00 8.4 12 Noroeste 35 Noroeste 0.2 -- -- 88
2020-11-08 06:00:00 8.1 6 Norte 26 Noroeste 1.8 -- -- 92
2020-11-08 05:00:00 8.2 4 Norte 30 Oeste 2 -- -- 92
2020-11-08 04:00:00 8.1 6 Norte 23 Sudeste 1.2 -- -- 92
2020-11-08 03:00:00 8.3 5 Norte 23 Este 1 -- -- 90
2020-11-08 02:00:00 8.3 6 Norte 19 Norte 0 -- -- 90
2020-11-08 01:00:00 8.7 5 Norte 27 Oeste 0 -- -- 84
2020-11-08 00:00:00 8.3 5 Norte 31 Sur 0 -- -- 85
2020-11-07 23:00:00 8.5 6 Noroeste 22 Noroeste 0 -- -- 83
2020-11-07 22:00:00 7.9 6 Sur 27 Sur 0.2 -- -- 89
2020-11-07 21:00:00 7.6 4 Sudoeste 26 Sudeste 0.4 -- -- 93
2020-11-07 20:00:00 7.8 5 Sudeste 21 Sur 0.2 -- -- 92
2020-11-07 19:00:00 8.3 8 Sudeste 34 Sudeste 0 -- -- 86
2020-11-07 18:00:00 8.7 8 Sudeste 35 Sudeste 0 -- -- 83
2020-11-07 17:00:00 8.9 6 Sudeste 28 Este 0 -- -- 80
2020-11-07 16:00:00 9.1 7 Nordeste 27 Sur 0 -- -- 76
2020-11-07 15:00:00 9.8 5 Norte 25 Sudeste 0 -- -- 73
2020-11-07 14:00:00 10.8 9 Sudoeste 22 Sudeste 0 -- -- 71
2020-11-07 13:00:00 9.2 4 Sudeste 20 Norte 0 -- -- 71
2020-11-07 12:00:00 9.1 3 Este 18 Sur 0 -- -- 80
2020-11-07 11:00:00 8.1 4 Norte 15 Oeste 0 -- -- 87
2020-11-07 10:00:00 8.6 5 Sudeste 30 Noroeste 0 -- -- 78
2020-11-07 09:00:00 8.3 7 Este 22 Noroeste 0 -- -- 80
2020-11-07 08:00:00 8.3 6 Noroeste 22 Noroeste 0 -- -- 82
2020-11-07 07:00:00 8.5 6 Noroeste 18 Noroeste 0 -- -- 82
2020-11-07 06:00:00 8.6 9 Oeste 28 Noroeste 0 -- -- 82
2020-11-07 05:00:00 8.7 3 Norte 19 Norte 0 -- -- 82
2020-11-07 04:00:00 8.9 9 Este 30 Nordeste 0 -- -- 80
2020-11-07 03:00:00 9.2 6 Sudeste 42 Este 0 -- -- 78
2020-11-07 02:00:00 9.2 9 Nordeste 40 Noroeste 0 -- -- 79
2020-11-07 01:00:00 9.4 10 Sudeste 42 Oeste 0 -- -- 79
2020-11-07 00:00:00 9.5 12 Noroeste 44 Norte 0 -- -- 77
2020-11-06 23:00:00 9.6 8 Este 49 Noroeste 0.6 -- -- 79
2020-11-06 22:00:00 11.4 16 Este 62 Este 0 -- -- 74
2020-11-06 21:00:00 12.4 18 Este 55 Sur 0 -- -- 65
2020-11-06 20:00:00 13.3 22 Este 62 Este 0 -- -- 66
2020-11-06 19:00:00 12.9 9 Sudeste 46 Sur 0 -- -- 66
2020-11-06 18:00:00 12.7 16 Sudeste 45 Este 0 -- -- 68
2020-11-06 17:00:00 12.2 19 Sudeste 49 Este 0 -- -- 71
2020-11-06 16:00:00 12 18 Sudeste 51 Este 0 -- -- 71
2020-11-06 15:00:00 12.8 13 Sudeste 55 Este 0 -- -- 64
2020-11-06 14:00:00 13.4 24 Este 66 Este 0 -- -- 56
2020-11-06 13:00:00 12.1 16 Sudeste 41 Sudeste 0.2 -- -- 63
2020-11-06 12:00:00 10.9 9 Sudeste 28 Sur 0 -- -- 72
2020-11-06 11:00:00 10.1 13 Sur 52 Sudeste 0 -- -- 78
2020-11-06 10:00:00 10.5 12 Este 49 Sudeste 0 -- -- 73
2020-11-06 09:00:00 10.1 14 Sudeste 43 Este 0 -- -- 75
2020-11-06 08:00:00 9.2 8 Sudoeste 50 Nordeste 0 -- -- 78
2020-11-06 07:00:00 8.4 11 Noroeste 48 Sudeste 0.2 -- -- 79
2020-11-06 06:00:00 8.4 14 Sudeste 45 Este 0.4 -- -- 87
2020-11-06 05:00:00 9.6 12 Este 38 Este 0 -- -- 77
2020-11-06 04:00:00 9 15 Este 41 Nordeste 0 -- -- 80
2020-11-06 03:00:00 8.9 11 Este 36 Este 0 -- -- 79
2020-11-06 02:00:00 9.1 19 Este 51 Este 0 -- -- 78
2020-11-06 01:00:00 8.8 25 Este 47 Sudeste 0 -- -- 80
2020-11-06 00:00:00 8.3 17 Sudeste 40 Este 1.4 -- -- 87
2020-11-05 23:00:00 7.7 16 Este 32 Este 0.8 -- -- 94
2020-11-05 22:00:00 7.7 15 Este 38 Este 0.4 -- -- 93
2020-11-05 21:00:00 7.8 21 Este 36 Este 0.8 -- -- 94
2020-11-05 20:00:00 8.1 16 Este 32 Este 0.6 -- -- 92
2020-11-05 19:00:00 8.6 13 Este 35 Este 0.6 -- -- 89
2020-11-05 18:00:00 9 17 Este 40 Este 0 -- -- 84
2020-11-05 17:00:00 8.9 15 Este 40 Este 0 -- -- 82
2020-11-05 16:00:00 8.9 21 Este 39 Este 0 -- -- 80
2020-11-05 15:00:00 9.2 21 Este 39 Este 0 -- -- 77
2020-11-05 14:00:00 9.1 21 Este 42 Este 0 -- -- 76
2020-11-05 13:00:00 8.8 19 Este 44 Este 0 -- -- 77
2020-11-05 12:00:00 9.3 21 Este 48 Este 0 -- -- 74
2020-11-05 11:00:00 9.3 23 Sudeste 54 Sudeste 0 -- -- 72
2020-11-05 10:00:00 9.7 21 Sudeste 64 Sudeste 0 -- -- 68
2020-11-05 09:00:00 8 -- -- -- -- 0 -- -- 76
2020-11-05 08:00:00 7.9 -- -- -- -- 0 -- -- 77
2020-11-05 07:00:00 7.6 -- -- -- -- 0 -- -- 78
2020-11-05 06:00:00 7.2 -- -- -- -- 0 -- -- 79
2020-11-05 05:00:00 6.8 -- -- -- -- 0 -- -- 79
2020-11-05 04:00:00 6.4 -- -- -- -- 0 -- -- 79
2020-11-05 03:00:00 5.6 -- -- -- -- 0 -- -- 77
2020-11-05 02:00:00 5 -- -- -- -- 0 -- -- 79
2020-11-05 01:00:00 3.4 -- -- -- -- 0 -- -- 80
2020-11-05 00:00:00 2.9 -- -- -- -- 0 -- -- 78
2020-11-04 23:00:00 2.2 -- -- -- -- 0 -- -- 79
2020-11-04 22:00:00 2.6 -- -- -- -- 0 -- -- 75
2020-11-04 21:00:00 3 -- -- -- -- 0 -- -- 72
2020-11-04 20:00:00 2.8 -- -- -- -- 0 -- -- 71
2020-11-04 19:00:00 3.2 -- -- -- -- 0 -- -- 73
2020-11-04 18:00:00 3.5 -- -- -- -- 0 -- -- 76
2020-11-04 17:00:00 3.9 -- -- -- -- 0 -- -- 70
2020-11-04 16:00:00 4 -- -- -- -- 0 -- -- 69
2020-11-04 15:00:00 4.9 -- -- -- -- 0 -- -- 68
2020-11-04 14:00:00 5.1 -- -- -- -- 0 -- -- 64
2020-11-04 13:00:00 5.6 -- -- -- -- 0 -- -- 75
2020-11-04 12:00:00 4.2 -- -- -- -- 0 -- -- 75
2020-11-04 11:00:00 2.6 -- -- -- -- 0 -- -- 89
2020-11-04 10:00:00 1.9 -- -- -- -- 0 -- -- 90
2020-11-04 09:00:00 0.1 -- -- -- -- 0 -- -- 94
2020-11-04 08:00:00 -1.8 0 Calma -- -- 0 -- -- 98
2020-11-04 07:00:00 -1.7 0 Calma -- -- 0 -- -- 95
2020-11-04 06:00:00 -0.3 0 Calma -- -- 0 -- -- 91
2020-11-04 05:00:00 -0.7 0 Calma -- -- 0 -- -- 95
2020-11-04 04:00:00 -1.7 0 Calma -- -- 0 -- -- 97
2020-11-04 03:00:00 -1.5 0 Calma -- -- 0 -- -- 98
2020-11-04 02:00:00 -0.8 0 Calma -- -- 0 -- -- 98
2020-11-04 01:00:00 -0.4 0 Calma -- -- 0 -- -- 97
2020-11-04 00:00:00 0.4 0 Calma 17 Norte 0 -- -- 90
2020-11-03 23:00:00 0.6 4 Sur 10 Sudeste 0 -- -- 98
2020-11-03 22:00:00 0.5 0 Calma 18 Norte 0 -- -- 96
2020-11-03 21:00:00 1.4 9 Norte 21 Norte 0 -- -- 90
2020-11-03 20:00:00 1.7 5 Norte 20 Nordeste 0 -- -- 91
2020-11-03 19:00:00 2.1 4 Norte 10 Nordeste 0 -- -- 91
2020-11-03 18:00:00 2.5 4 Este 14 Nordeste 0 -- -- 91
2020-11-03 17:00:00 3 3 Sur 20 Norte 0 -- -- 89
2020-11-03 16:00:00 3.5 5 Sur 14 Noroeste 0 -- -- 95
2020-11-03 15:00:00 3.5 7 Este 22 Este 0 -- -- 95
2020-11-03 14:00:00 3.4 7 Nordeste 20 Este 0.2 -- -- 95
2020-11-03 13:00:00 3.6 6 Nordeste 28 Este 0.2 -- -- 95
2020-11-03 12:00:00 3.9 7 Sur 27 Norte 0 -- -- 98
2020-11-03 11:00:00 3.6 8 Oeste 25 Nordeste 0.2 -- -- 96
2020-11-03 10:00:00 3.4 7 Sur 21 Noroeste 0.2 -- -- 100
2020-11-03 09:00:00 3 3 Sur 14 Sudeste 0.2 -- -- 100
2020-11-03 08:00:00 2.6 2 Sur 7 Sudeste 0.2 -- -- 100
2020-11-03 07:00:00 2.6 0 Calma 6 Noroeste 0.2 -- -- 100
2020-11-03 06:00:00 2.1 5 Noroeste 16 Oeste 0 -- -- 100
2020-11-03 05:00:00 0.8 3 Oeste 9 Oeste 0 -- -- 100
2020-11-03 04:00:00 0.6 0 Calma 9 Sudeste 0 -- -- 100
2020-11-03 03:00:00 1.7 2 Noroeste 16 Oeste 0 -- -- 100
2020-11-03 02:00:00 3.7 2 Nordeste 6 Noroeste 0 -- -- 100
2020-11-03 01:00:00 4.3 0 Calma 18 Noroeste 0 -- -- 100
2020-11-03 00:00:00 5.2 4 Oeste 12 Oeste 0 -- -- 100
2020-11-02 23:00:00 5.7 0 Calma 5 Oeste 0.2 -- -- 100
2020-11-02 22:00:00 6.3 2 Nordeste 7 Noroeste 0.2 -- -- 100
2020-11-02 21:00:00 7.2 0 Calma 8 Noroeste 0.2 -- -- 100
2020-11-02 20:00:00 7.4 0 Calma 5 Noroeste 0 -- -- 100
2020-11-02 19:00:00 7.3 3 Noroeste 8 Noroeste 0.4 -- -- 100
2020-11-02 18:00:00 7.5 0 Calma 6 Norte 2 -- -- 100
2020-11-02 17:00:00 8.2 2 Norte 7 Nordeste 0.8 -- -- 99
2020-11-02 16:00:00 9.8 0 Calma 7 Norte 0 -- -- 99
2020-11-02 15:00:00 10 2 Nordeste 10 Noroeste 2.4 -- -- 98
2020-11-02 14:00:00 12.1 4 Noroeste 10 Noroeste 0.2 -- -- 95
2020-11-02 13:00:00 12 3 Norte 12 Este 0.8 -- -- 93
2020-11-02 12:00:00 13 5 Oeste 17 Noroeste 0 -- -- 85
2020-11-02 11:00:00 12.2 6 Noroeste 16 Noroeste 0 -- -- 85
2020-11-02 10:00:00 12 5 Noroeste 15 Noroeste 0 -- -- 86
2020-11-02 09:00:00 11.4 6 Noroeste 16 Oeste 0 -- -- 89
2020-11-02 08:00:00 11 4 Noroeste 18 Noroeste 0 -- -- 92
2020-11-02 07:00:00 11 8 Noroeste 16 Noroeste 0 -- -- 93
2020-11-02 06:00:00 11 4 Norte 14 Oeste 0 -- -- 95
2020-11-02 05:00:00 11.1 4 Norte 11 Norte 0 -- -- 92
2020-11-02 04:00:00 11.4 4 Norte 15 Norte 0 -- -- 92
2020-11-02 03:00:00 11.5 4 Nordeste 14 Sudeste 0 -- -- 91
2020-11-02 02:00:00 11.7 5 Nordeste 14 Este 0 -- -- 91
2020-11-02 01:00:00 12.1 3 Este 17 Noroeste 0 -- -- 88
2020-11-02 00:00:00 12.2 5 Norte 34 Sudeste 0 -- -- 88